Time;durP1;ratioP1;P1;durP2;ratioP2;P2;SDS_P1;SDS_P2;PMS_P1;PMS_P2;Temp;Humidity;BMP_temperature;BMP_pressure;BME280_temperature;BME280_humidity;BME280_pressure;Samples;Min_cycle;Max_cycle;Signal;HPM_P1;HPM_P2
2024/01/07 00:01:38;;;;;;;;;;;;;;;11.72;78.84;98359.06;5031780;28;19913;-83
2024/01/07 00:04:03;;;;;;;;;;;;;;;11.75;77.78;98369.19;5031005;28;19919;-84
2024/01/07 00:06:29;;;;;;;;;;;;;;;11.75;79.70;98377.13;5032281;28;19917;-84
2024/01/07 00:08:54;;;;;;;;;;;;;;;11.76;78.61;98381.41;5030904;28;19913;-85
2024/01/07 00:11:19;;;;;;;;;;;;;;;11.78;80.08;98397.88;5030824;28;19913;-85
2024/01/07 00:13:45;;;;;;;;;;;;;;;11.79;79.13;98354.56;5032203;28;19935;-85
2024/01/07 00:16:10;;;;;;;;;;;;;;;11.82;80.45;98348.84;5031244;28;19956;-85
2024/01/07 00:18:35;;;;;;;;;;;;;;;11.87;74.33;98367.50;5031946;28;19921;-85
2024/01/07 00:21:01;;;;;;;;;;;;;;;11.87;78.92;98359.56;5030636;28;19919;-85
2024/01/07 00:23:26;;;;;;;;;;;;;;;11.93;77.35;98379.09;5031840;28;19944;-84
2024/01/07 00:25:51;;;;;;;;;;;;;;;11.96;78.38;98382.13;5030761;28;20004;-83
2024/01/07 00:28:16;;;;;;;;;;;;;;;12.00;79.11;98369.28;5032084;28;19936;-81
2024/01/07 00:30:42;;;;;;;;;;;;;;;12.04;75.77;98373.09;5030817;28;19913;-83
2024/01/07 00:33:07;;;;;;;;;;;;;;;12.07;75.89;98373.50;5030789;28;19913;-84
2024/01/07 00:35:32;;;;;;;;;;;;;;;12.11;75.98;98352.69;5031120;28;19963;-83
2024/01/07 00:37:58;;;;;;;;;;;;;;;12.16;79.01;98349.41;5031883;28;20382;-83
2024/01/07 00:40:23;;;;;;;;;;;;;;;12.18;78.29;98342.88;5032001;28;19913;-85
2024/01/07 00:42:49;;;;;;;;;;;;;;;12.20;79.35;98353.22;5030481;28;20364;-83
2024/01/07 00:45:14;;;;;;;;;;;;;;;12.22;80.57;98348.53;5030283;28;19917;-84
2024/01/07 00:47:39;;;;;;;;;;;;;;;12.22;78.53;98322.88;5030413;28;20444;-83
2024/01/07 00:50:05;;;;;;;;;;;;;;;12.20;79.44;98324.94;5030629;28;19992;-85
2024/01/07 00:52:30;;;;;;;;;;;;;;;12.21;79.26;98336.31;5030458;28;19993;-81
2024/01/07 00:54:55;;;;;;;;;;;;;;;12.22;79.41;98319.41;5030114;28;20404;-83
2024/01/07 00:57:20;;;;;;;;;;;;;;;12.22;77.78;98306.19;5030215;28;19921;-86
2024/01/07 00:59:46;;;;;;;;;;;;;;;12.21;80.70;98284.22;5031712;28;20358;-86
2024/01/07 01:02:11;;;;;;;;;;;;;;;12.22;78.69;98275.25;5030539;28;19913;-85
2024/01/07 01:04:38;;;;;;;;;;;;;;;12.22;79.39;98269.16;5030332;28;20421;-86
2024/01/07 01:07:03;;;;;;;;;;;;;;;12.22;77.12;98269.94;5030458;28;20012;-86
2024/01/07 01:09:29;;;;;;;;;;;;;;;12.20;78.16;98284.44;5030561;28;19967;-86
2024/01/07 01:11:54;;;;;;;;;;;;;;;12.17;80.05;98298.09;5030389;28;19913;-80
2024/01/07 01:14:19;;;;;;;;;;;;;;;12.17;81.99;98284.88;5034179;28;19920;-82
2024/01/07 01:16:45;;;;;;;;;;;;;;;12.18;82.30;98273.25;5035476;28;19913;-81
2024/01/07 01:19:10;;;;;;;;;;;;;;;12.17;80.96;98266.34;5035672;28;19913;-79
2024/01/07 01:21:35;;;;;;;;;;;;;;;12.17;79.56;98263.69;5035388;28;19914;-80
2024/01/07 01:24:01;;;;;;;;;;;;;;;12.16;79.33;98252.31;5033994;28;19925;-81
2024/01/07 01:26:26;;;;;;;;;;;;;;;12.12;82.23;98229.16;5035276;28;19975;-80
2024/01/07 01:28:51;;;;;;;;;;;;;;;12.08;83.00;98255.25;5033947;28;19913;-83
2024/01/07 01:31:16;;;;;;;;;;;;;;;12.09;81.67;98230.41;5035228;28;20312;-85
2024/01/07 01:33:42;;;;;;;;;;;;;;;12.11;79.23;98217.75;5035176;28;19971;-81
2024/01/07 01:36:07;;;;;;;;;;;;;;;12.11;79.40;98209.03;5035186;28;19917;-85
2024/01/07 01:38:33;;;;;;;;;;;;;;;12.08;80.09;98202.31;5035097;28;19964;-86
2024/01/07 01:40:58;;;;;;;;;;;;;;;12.03;81.22;98167.78;5034967;28;20000;-87
2024/01/07 01:43:24;;;;;;;;;;;;;;;12.02;81.23;98176.75;5033735;28;19947;-87
2024/01/07 01:45:49;;;;;;;;;;;;;;;11.94;82.01;98166.47;5033525;28;19926;-88
2024/01/07 01:48:15;;;;;;;;;;;;;;;11.94;81.75;98175.22;5034953;28;19914;-88
2024/01/07 01:50:40;;;;;;;;;;;;;;;11.87;82.52;98174.44;5034769;28;19909;-87
2024/01/07 01:53:05;;;;;;;;;;;;;;;11.87;82.56;98148.00;5034586;28;19913;-87
2024/01/07 01:55:31;;;;;;;;;;;;;;;11.87;83.96;98145.34;5033269;28;19909;-87
2024/01/07 01:57:59;;;;;;;;;;;;;;;11.90;81.45;98146.78;5034606;28;19913;-87
2024/01/07 02:00:25;;;;;;;;;;;;;;;11.88;81.69;98144.31;5034517;28;19913;-87
2024/01/07 02:02:50;;;;;;;;;;;;;;;11.89;81.91;98139.84;5034514;28;19920;-85
2024/01/07 02:05:15;;;;;;;;;;;;;;;11.88;82.29;98131.09;5034347;28;19917;-86
2024/01/07 02:07:40;;;;;;;;;;;;;;;11.89;82.35;98130.09;5034429;28;19967;-86
2024/01/07 02:10:06;;;;;;;;;;;;;;;11.84;83.41;98121.19;5034312;28;19960;-85
2024/01/07 02:12:31;;;;;;;;;;;;;;;11.86;83.68;98121.78;5032882;28;19913;-84
2024/01/07 02:14:56;;;;;;;;;;;;;;;11.87;84.07;98113.63;5033095;28;19921;-87
2024/01/07 02:17:22;;;;;;;;;;;;;;;11.88;83.95;98104.66;5033050;28;19920;-86
2024/01/07 02:19:47;;;;;;;;;;;;;;;11.90;84.62;98094.69;5034222;28;20360;-86
2024/01/07 02:22:12;;;;;;;;;;;;;;;11.91;83.59;98071.69;5032782;28;19921;-86
2024/01/07 02:24:38;;;;;;;;;;;;;;;11.91;84.18;98047.91;5032032;28;19925;-86
2024/01/07 02:27:03;;;;;;;;;;;;;;;11.90;84.40;98010.06;5034173;28;20302;-86
2024/01/07 02:29:29;;;;;;;;;;;;;;;11.91;82.22;98014.31;5032837;28;20004;-86
2024/01/07 02:31:54;;;;;;;;;;;;;;;11.89;83.24;98003.16;5034038;28;20394;-87
2024/01/07 02:34:19;;;;;;;;;;;;;;;11.92;83.14;97992.13;5034093;28;20371;-87
2024/01/07 02:36:45;;;;;;;;;;;;;;;11.91;82.57;97958.78;5034114;28;19913;-87
2024/01/07 02:39:10;;;;;;;;;;;;;;;11.92;82.03;97957.75;5032601;28;19920;-87
2024/01/07 02:41:35;;;;;;;;;;;;;;;11.93;81.69;97969.13;5032449;28;20355;-87
2024/01/07 02:44:00;;;;;;;;;;;;;;;11.93;81.59;97962.00;5032677;28;19967;-87
2024/01/07 02:46:26;;;;;;;;;;;;;;;11.96;81.66;97963.41;5033805;28;20378;-87
2024/01/07 02:48:51;;;;;;;;;;;;;;;11.98;82.22;97954.19;5032526;28;19913;-87
2024/01/07 02:51:16;;;;;;;;;;;;;;;12.00;82.36;97943.41;5032469;28;19920;-87
2024/01/07 02:53:41;;;;;;;;;;;;;;;12.01;82.35;97947.66;5032607;28;20004;-87
2024/01/07 02:56:08;;;;;;;;;;;;;;;12.02;82.78;97928.91;5033865;28;19920;-87
2024/01/07 02:58:33;;;;;;;;;;;;;;;12.01;83.01;97937.88;5032544;28;20005;-87
2024/01/07 03:00:59;;;;;;;;;;;;;;;12.00;80.92;97940.75;5032268;28;19952;-87
2024/01/07 03:03:24;;;;;;;;;;;;;;;11.99;81.73;97932.00;5033569;28;19920;-87
2024/01/07 03:05:49;;;;;;;;;;;;;;;11.98;81.72;97917.16;5031951;28;20444;-87
2024/01/07 03:08:14;;;;;;;;;;;;;;;11.99;82.96;97924.06;5033349;28;19920;-86
2024/01/07 03:10:40;;;;;;;;;;;;;;;12.00;82.06;97933.63;5033360;28;19910;-84
2024/01/07 03:13:05;;;;;;;;;;;;;;;12.00;81.09;97923.03;5033230;28;19920;-85
2024/01/07 03:15:30;;;;;;;;;;;;;;;12.03;79.85;97956.97;5031828;28;20497;-84
2024/01/07 03:17:57;;;;;;;;;;;;;;;12.04;79.90;97947.19;5031698;28;19913;-84
2024/01/07 03:20:22;;;;;;;;;;;;;;;12.06;80.48;97958.38;5031779;28;20318;-86
2024/01/07 03:22:47;;;;;;;;;;;;;;;12.09;80.77;97949.97;5031646;28;19921;-85
2024/01/07 03:25:13;;;;;;;;;;;;;;;12.07;82.27;97954.69;5032119;28;19952;-86
2024/01/07 03:27:38;;;;;;;;;;;;;;;12.16;82.21;97961.25;5031842;28;19975;-87
2024/01/07 03:30:04;;;;;;;;;;;;;;;12.18;82.55;97942.50;5031679;28;19920;-86
2024/01/07 03:32:29;;;;;;;;;;;;;;;12.22;83.05;97946.31;5031532;28;19917;-87
2024/01/07 03:34:54;;;;;;;;;;;;;;;12.32;82.96;97949.22;5032834;28;19913;-86
2024/01/07 03:37:20;;;;;;;;;;;;;;;12.30;83.10;97956.56;5031731;28;20408;-86
2024/01/07 03:39:46;;;;;;;;;;;;;;;12.41;81.50;97967.19;5032817;28;20370;-85
2024/01/07 03:42:11;;;;;;;;;;;;;;;12.41;80.59;97959.25;5031551;28;19920;-85
2024/01/07 03:44:38;;;;;;;;;;;;;;;12.49;79.54;97970.53;5031480;28;19917;-86
2024/01/07 03:47:03;;;;;;;;;;;;;;;12.46;78.64;97969.13;5032763;28;19950;-85
2024/01/07 03:49:28;;;;;;;;;;;;;;;12.43;78.13;97996.06;5031371;28;19996;-84
2024/01/07 03:51:53;;;;;;;;;;;;;;;12.38;77.13;97996.75;5031260;28;20275;-83
2024/01/07 03:54:19;;;;;;;;;;;;;;;12.28;77.02;97987.75;5031104;28;19913;-83
2024/01/07 03:56:44;;;;;;;;;;;;;;;12.29;77.19;97976.13;5032332;28;19913;-83
2024/01/07 03:59:09;;;;;;;;;;;;;;;12.19;76.89;97950.22;5031204;28;19963;-86
2024/01/07 04:01:35;;;;;;;;;;;;;;;12.16;76.83;97932.16;5032455;28;20027;-86
2024/01/07 04:04:00;;;;;;;;;;;;;;;12.14;76.50;97936.06;5032528;28;19917;-85
2024/01/07 04:06:25;;;;;;;;;;;;;;;12.06;76.90;97931.91;5032284;28;19925;-85
2024/01/07 04:08:50;;;;;;;;;;;;;;;12.05;76.63;97944.34;5032231;28;19947;-86
2024/01/07 04:11:15;;;;;;;;;;;;;;;12.03;76.25;97980.78;5032059;28;19914;-86
2024/01/07 04:13:41;;;;;;;;;;;;;;;12.01;76.27;97988.13;5032512;28;19952;-86
2024/01/07 04:16:15;;;;;;;;;;;;;;;11.96;75.68;97993.28;5032208;28;19917;-86
2024/01/07 04:18:40;;;;;;;;;;;;;;;11.94;75.31;97991.91;5030845;28;19920;-86
2024/01/07 04:21:08;;;;;;;;;;;;;;;11.91;75.69;97974.66;5032309;28;19913;-86
2024/01/07 04:23:34;;;;;;;;;;;;;;;11.87;75.53;97981.38;5030660;28;19921;-86
2024/01/07 04:25:59;;;;;;;;;;;;;;;11.83;74.83;97966.19;5031869;28;19925;-86
2024/01/07 04:28:24;;;;;;;;;;;;;;;11.79;74.75;97955.25;5032005;28;20378;-87
2024/01/07 04:30:50;;;;;;;;;;;;;;;11.75;75.11;97959.34;5031961;28;19913;-87
2024/01/07 04:33:15;;;;;;;;;;;;;;;11.77;74.08;97967.88;5030556;28;19913;-86
2024/01/07 04:35:40;;;;;;;;;;;;;;;11.67;74.45;97978.16;5031876;28;19913;-87
2024/01/07 04:38:06;;;;;;;;;;;;;;;11.70;74.13;97981.19;5031793;28;19913;-87
2024/01/07 04:40:31;;;;;;;;;;;;;;;11.68;73.74;97969.22;5030542;28;19920;-86
2024/01/07 04:42:56;;;;;;;;;;;;;;;11.64;73.81;97957.47;5030457;28;19944;-87
2024/01/07 04:45:22;;;;;;;;;;;;;;;11.60;73.78;97945.72;5031575;28;19917;-87
2024/01/07 04:47:47;;;;;;;;;;;;;;;11.57;73.17;97940.88;5029902;28;20362;-87
2024/01/07 04:50:14;;;;;;;;;;;;;;;11.57;73.75;97927.69;5031866;28;19913;-87
2024/01/07 04:52:40;;;;;;;;;;;;;;;11.50;73.33;97911.09;5030578;28;20005;-87
2024/01/07 04:55:05;;;;;;;;;;;;;;;11.48;72.86;97919.25;5031551;28;19957;-86
2024/01/07 04:57:31;;;;;;;;;;;;;;;11.51;73.58;97910.06;5031729;28;19913;-87
2024/01/07 04:59:56;;;;;;;;;;;;;;;11.43;72.76;97924.41;5031543;28;19920;-87
2024/01/07 05:02:21;;;;;;;;;;;;;;;11.46;73.19;97926.59;5030422;28;19966;-87
2024/01/07 05:04:46;;;;;;;;;;;;;;;11.50;72.92;97919.03;5030140;28;19917;-87
2024/01/07 05:07:12;;;;;;;;;;;;;;;11.47;72.78;97925.56;5031664;28;19920;-88
2024/01/07 05:09:37;;;;;;;;;;;;;;;11.42;72.71;97928.06;5031636;28;19935;-87
2024/01/07 05:12:02;;;;;;;;;;;;;;;11.39;72.43;97941.72;5030302;28;19921;-86
2024/01/07 05:14:28;;;;;;;;;;;;;;;11.35;72.75;97953.78;5031544;28;20031;-87
2024/01/07 05:16:54;;;;;;;;;;;;;;;11.34;72.87;97962.72;5030517;28;20462;-87
2024/01/07 05:19:19;;;;;;;;;;;;;;;11.37;72.50;97955.16;5030060;28;19913;-88
2024/01/07 05:21:44;;;;;;;;;;;;;;;11.38;72.60;97956.78;5029969;28;20445;-87
2024/01/07 05:24:10;;;;;;;;;;;;;;;11.39;72.42;97965.50;5030075;28;20007;-87
2024/01/07 05:26:42;;;;;;;;;;;;;;;11.36;71.84;97958.84;5031339;28;20393;-87
2024/01/07 05:29:07;;;;;;;;;;;;;;;11.35;71.97;97961.69;5031498;28;19997;-88
2024/01/07 05:31:32;;;;;;;;;;;;;;;11.31;72.37;97944.66;5030084;28;19916;-88
2024/01/07 05:33:58;;;;;;;;;;;;;;;11.32;72.04;97951.56;5031372;28;19964;-88
2024/01/07 05:36:23;;;;;;;;;;;;;;;11.33;72.76;97975.13;5031210;28;20360;-85
2024/01/07 05:38:48;;;;;;;;;;;;;;;11.34;72.18;97974.09;5031501;28;19935;-86
2024/01/07 05:41:13;;;;;;;;;;;;;;;11.34;73.10;97979.38;5031243;28;19936;-87
2024/01/07 05:43:39;;;;;;;;;;;;;;;11.32;72.85;97981.44;5030114;28;20004;-87
2024/01/07 05:46:04;;;;;;;;;;;;;;;11.31;73.25;97974.53;5029906;28;20376;-86
2024/01/07 05:48:29;;;;;;;;;;;;;;;11.31;72.67;97969.25;5030156;28;19920;-88
2024/01/07 05:50:55;;;;;;;;;;;;;;;11.31;72.61;97971.91;5031162;28;19963;-88
2024/01/07 05:53:20;;;;;;;;;;;;;;;11.31;72.88;97965.81;5029989;28;19967;-87
2024/01/07 05:55:45;;;;;;;;;;;;;;;11.27;73.10;97957.53;5031191;28;19920;-88
2024/01/07 05:58:10;;;;;;;;;;;;;;;11.25;73.05;97962.22;5029923;28;19913;-88
2024/01/07 06:00:36;;;;;;;;;;;;;;;11.21;73.27;97965.53;5032579;28;19913;-88
2024/01/07 06:03:01;;;;;;;;;;;;;;;11.17;72.94;97953.78;5033609;28;20409;-88
2024/01/07 06:05:26;;;;;;;;;;;;;;;11.17;73.79;97951.13;5034580;28;19975;-88
2024/01/07 06:07:52;;;;;;;;;;;;;;;11.12;73.59;97941.19;5033096;28;19913;-88
2024/01/07 06:10:17;;;;;;;;;;;;;;;11.07;73.81;97952.44;5034348;28;19912;-88
2024/01/07 06:12:42;;;;;;;;;;;;;;;11.03;73.70;97940.69;5034462;28;19917;-88
2024/01/07 06:15:08;;;;;;;;;;;;;;;10.99;73.93;97947.44;5034295;28;19971;-88
2024/01/07 06:17:33;;;;;;;;;;;;;;;10.96;74.02;97931.22;5032895;28;19956;-88
2024/01/07 06:19:59;;;;;;;;;;;;;;;10.91;74.38;97952.19;5034451;28;20295;-88
2024/01/07 06:22:24;;;;;;;;;;;;;;;10.87;74.95;97964.22;5032939;28;19925;-88
2024/01/07 06:24:49;;;;;;;;;;;;;;;10.84;74.62;97970.75;5032914;28;19921;-88
2024/01/07 06:27:15;;;;;;;;;;;;;;;10.83;75.67;97974.41;5034121;28;19913;-88
2024/01/07 06:29:40;;;;;;;;;;;;;;;10.83;74.81;97982.34;5032865;28;20033;-88
2024/01/07 06:32:05;;;;;;;;;;;;;;;10.77;75.17;97993.75;5034240;28;19913;-88
2024/01/07 06:34:30;;;;;;;;;;;;;;;10.74;75.58;97989.72;5034279;28;20409;-88
2024/01/07 06:36:56;;;;;;;;;;;;;;;10.74;75.58;97994.19;5034160;28;19956;-88
2024/01/07 06:39:21;;;;;;;;;;;;;;;10.79;75.09;97981.97;5033966;28;20286;-88
2024/01/07 06:41:46;;;;;;;;;;;;;;;10.83;74.58;97977.88;5033714;28;19913;-88
2024/01/07 06:44:12;;;;;;;;;;;;;;;10.95;73.96;97988.50;5034133;28;20074;-88
2024/01/07 06:46:37;;;;;;;;;;;;;;;11.00;73.35;97993.94;5032402;28;19922;-88
2024/01/07 06:49:02;;;;;;;;;;;;;;;11.02;73.51;97997.19;5033768;28;20394;-88
2024/01/07 06:51:28;;;;;;;;;;;;;;;11.12;73.08;98001.94;5033862;28;19943;-87
2024/01/07 06:53:53;;;;;;;;;;;;;;;11.19;72.47;97996.63;5032439;28;19921;-88
2024/01/07 06:56:18;;;;;;;;;;;;;;;11.23;73.11;97997.81;5033423;28;19995;-87
2024/01/07 06:58:43;;;;;;;;;;;;;;;11.30;72.41;97983.50;5033623;28;20361;-87
2024/01/07 07:01:09;;;;;;;;;;;;;;;11.34;71.99;97986.50;5033457;28;20360;-87
2024/01/07 07:03:34;;;;;;;;;;;;;;;11.33;72.26;97992.81;5032454;28;19913;-87
2024/01/07 07:05:59;;;;;;;;;;;;;;;11.35;72.31;97996.84;5033368;28;20353;-88
2024/01/07 07:08:24;;;;;;;;;;;;;;;11.36;72.59;97993.19;5033633;28;19913;-88
2024/01/07 07:10:50;;;;;;;;;;;;;;;11.44;72.26;97994.72;5032925;28;19913;-87
2024/01/07 07:13:15;;;;;;;;;;;;;;;11.46;71.74;97968.88;5033266;28;20027;-87
2024/01/07 07:15:40;;;;;;;;;;;;;;;11.48;71.87;97958.88;5032416;28;19955;-88
2024/01/07 07:18:06;;;;;;;;;;;;;;;11.47;71.87;97959.91;5033333;28;19913;-87
2024/01/07 07:20:31;;;;;;;;;;;;;;;11.51;72.02;97952.34;5033279;28;19913;-87
2024/01/07 07:22:56;;;;;;;;;;;;;;;11.59;71.52;97941.47;5032935;28;19974;-87
2024/01/07 07:25:22;;;;;;;;;;;;;;;11.54;71.83;97952.72;5031620;28;19917;-87
2024/01/07 07:27:47;;;;;;;;;;;;;;;11.57;72.30;97943.53;5033080;28;19913;-88
2024/01/07 07:30:13;;;;;;;;;;;;;;;11.62;72.10;97944.47;5032813;28;19913;-88
2024/01/07 07:32:44;;;;;;;;;;;;;;;11.73;71.84;97938.44;5032998;28;20345;-87
2024/01/07 07:35:09;;;;;;;;;;;;;;;11.67;72.12;97952.53;5033007;28;19928;-88
2024/01/07 07:37:34;;;;;;;;;;;;;;;11.72;71.82;97944.75;5031660;28;20000;-87
2024/01/07 07:40:00;;;;;;;;;;;;;;;11.74;72.31;97939.22;5031489;28;19940;-87
2024/01/07 07:42:25;;;;;;;;;;;;;;;11.77;72.02;97942.25;5032714;28;19913;-87
2024/01/07 07:44:50;;;;;;;;;;;;;;;11.83;72.13;97950.31;5032669;28;20000;-86
2024/01/07 07:47:15;;;;;;;;;;;;;;;11.91;71.81;97958.78;5032736;28;19913;-86
2024/01/07 07:49:41;;;;;;;;;;;;;;;11.94;71.98;97950.41;5032810;28;19913;-86
2024/01/07 07:52:07;;;;;;;;;;;;;;;11.99;71.91;97945.25;5031305;28;19971;-87
2024/01/07 07:54:32;;;;;;;;;;;;;;;12.04;71.73;97942.72;5032972;28;19920;-85
2024/01/07 07:56:58;;;;;;;;;;;;;;;12.14;71.79;97946.66;5031082;28;19909;-86
2024/01/07 07:59:23;;;;;;;;;;;;;;;12.22;71.86;97941.84;5032388;28;20444;-86
2024/01/07 08:01:49;;;;;;;;;;;;;;;12.28;71.78;97950.69;5032594;28;19913;-85
2024/01/07 08:04:14;;;;;;;;;;;;;;;12.39;71.34;97947.25;5032478;28;20491;-86
2024/01/07 08:06:39;;;;;;;;;;;;;;;12.51;70.96;97945.44;5032134;28;19917;-86
2024/01/07 08:09:05;;;;;;;;;;;;;;;12.53;70.67;97940.72;5032229;28;19913;-87
2024/01/07 08:11:30;;;;;;;;;;;;;;;12.59;70.49;97957.53;5031134;28;19920;-87
2024/01/07 08:13:57;;;;;;;;;;;;;;;12.66;70.35;97950.31;5032329;28;19920;-87
2024/01/07 08:16:22;;;;;;;;;;;;;;;12.70;70.41;97938.22;5032492;28;19913;-86
2024/01/07 08:18:47;;;;;;;;;;;;;;;12.74;69.98;97942.00;5032234;28;19971;-86
2024/01/07 08:21:13;;;;;;;;;;;;;;;12.78;70.09;97937.88;5030785;28;19921;-86
2024/01/07 08:23:38;;;;;;;;;;;;;;;12.83;69.93;97948.56;5029827;28;19921;-86
2024/01/07 08:26:04;;;;;;;;;;;;;;;12.86;70.01;97939.34;5032356;28;19917;-86
2024/01/07 08:28:29;;;;;;;;;;;;;;;12.93;69.94;97934.75;5032068;28;20287;-86
2024/01/07 08:30:56;;;;;;;;;;;;;;;13.03;69.63;97924.38;5030576;28;19913;-85
2024/01/07 08:33:21;;;;;;;;;;;;;;;13.10;69.40;97927.69;5030514;28;19913;-86
2024/01/07 08:35:46;;;;;;;;;;;;;;;13.09;69.67;97912.84;5031949;28;20055;-85
2024/01/07 08:38:11;;;;;;;;;;;;;;;13.13;69.67;97907.88;5030670;28;19914;-86
2024/01/07 08:40:37;;;;;;;;;;;;;;;13.22;69.31;97907.28;5030713;28;19913;-85
2024/01/07 08:43:02;;;;;;;;;;;;;;;13.22;69.52;97915.25;5030673;28;20409;-86
2024/01/07 08:45:27;;;;;;;;;;;;;;;13.27;69.32;97907.41;5032139;28;20414;-86
2024/01/07 08:47:53;;;;;;;;;;;;;;;13.31;69.67;97916.50;5031723;28;19917;-86
2024/01/07 08:50:18;;;;;;;;;;;;;;;13.36;69.34;97913.94;5031758;28;19917;-85
2024/01/07 08:52:43;;;;;;;;;;;;;;;13.40;69.12;97905.53;5031760;28;20003;-86
2024/01/07 08:55:10;;;;;;;;;;;;;;;13.48;68.92;97911.28;5030439;28;19920;-85
2024/01/07 08:57:36;;;;;;;;;;;;;;;13.53;69.05;97900.75;5031917;28;19913;-85
2024/01/07 09:00:02;;;;;;;;;;;;;;;13.61;68.77;97903.03;5031795;28;19921;-85
2024/01/07 09:02:27;;;;;;;;;;;;;;;13.66;68.74;97907.63;5030281;28;19913;-85
2024/01/07 09:04:52;;;;;;;;;;;;;;;13.72;68.34;97909.31;5030540;28;19932;-86
2024/01/07 09:07:19;;;;;;;;;;;;;;;13.75;68.11;97895.59;5031462;28;20008;-85
2024/01/07 09:09:44;;;;;;;;;;;;;;;13.79;68.00;97896.72;5031605;28;19917;-86
2024/01/07 09:12:09;;;;;;;;;;;;;;;13.89;67.67;97896.91;5031666;28;19913;-85
2024/01/07 09:14:37;;;;;;;;;;;;;;;13.94;67.89;97902.28;5030623;28;19913;-84
2024/01/07 09:17:02;;;;;;;;;;;;;;;13.99;66.64;97897.06;5029865;28;19905;-86
2024/01/07 09:19:27;;;;;;;;;;;;;;;14.08;67.04;97899.31;5031415;28;19928;-86
2024/01/07 09:21:53;;;;;;;;;;;;;;;14.13;66.29;97881.66;5031435;28;19913;-85
2024/01/07 09:24:18;;;;;;;;;;;;;;;14.16;66.20;97875.06;5031526;28;19999;-85
2024/01/07 09:26:43;;;;;;;;;;;;;;;14.21;66.23;97856.56;5029798;28;20000;-85
2024/01/07 09:29:10;;;;;;;;;;;;;;;14.25;65.71;97868.31;5031192;28;20012;-85
2024/01/07 09:31:35;;;;;;;;;;;;;;;14.25;65.98;97857.69;5031133;28;19941;-85
2024/01/07 09:34:02;;;;;;;;;;;;;;;14.34;65.97;97850.13;5031675;28;20019;-85
2024/01/07 09:36:27;;;;;;;;;;;;;;;14.40;65.68;97857.09;5035285;28;19917;-85
2024/01/07 09:38:53;;;;;;;;;;;;;;;14.48;65.59;97852.22;5035156;28;20390;-84
2024/01/07 09:41:19;;;;;;;;;;;;;;;14.48;65.64;97848.75;5033917;28;19917;-85
2024/01/07 09:43:44;;;;;;;;;;;;;;;14.50;65.61;97850.13;5035063;28;20303;-84
2024/01/07 09:46:09;;;;;;;;;;;;;;;14.50;65.00;97839.50;5034952;28;19917;-84
2024/01/07 09:48:34;;;;;;;;;;;;;;;14.51;64.50;97838.44;5033589;28;19913;-84
2024/01/07 09:51:00;;;;;;;;;;;;;;;14.54;64.41;97845.94;5034737;28;19921;-85
2024/01/07 09:53:29;;;;;;;;;;;;;;;14.60;64.75;97846.81;5033267;28;20326;-86
2024/01/07 09:55:58;;;;;;;;;;;;;;;14.63;64.52;97843.66;5034655;28;20298;-85
2024/01/07 09:58:23;;;;;;;;;;;;;;;14.66;64.50;97847.66;5034883;28;19913;-85
2024/01/07 10:00:49;;;;;;;;;;;;;;;14.67;63.67;97849.28;5034838;28;20306;-85
2024/01/07 10:03:14;;;;;;;;;;;;;;;14.68;63.46;97843.72;5033414;28;19940;-85
2024/01/07 10:05:39;;;;;;;;;;;;;;;14.68;62.41;97834.94;5034494;28;20071;-85
2024/01/07 10:08:05;;;;;;;;;;;;;;;14.71;63.00;97832.59;5034379;28;19913;-84
2024/01/07 10:10:30;;;;;;;;;;;;;;;14.69;60.71;97828.59;5034404;28;19917;-84
2024/01/07 10:12:56;;;;;;;;;;;;;;;14.73;61.07;97819.06;5034530;28;19996;-83
2024/01/07 10:15:22;;;;;;;;;;;;;;;14.74;61.16;97816.16;5034527;28;19914;-83
2024/01/07 10:17:48;;;;;;;;;;;;;;;14.78;61.42;97811.16;5034428;28;20356;-84
2024/01/07 10:20:13;;;;;;;;;;;;;;;14.83;62.27;97797.94;5034920;28;20022;-85
2024/01/07 10:22:39;;;;;;;;;;;;;;;14.83;60.69;97804.06;5032969;28;20418;-84
2024/01/07 10:25:04;;;;;;;;;;;;;;;14.84;61.21;97800.34;5034226;28;19917;-84
2024/01/07 10:27:33;;;;;;;;;;;;;;;14.84;61.10;97795.03;5032945;28;19919;-84
2024/01/07 10:29:58;;;;;;;;;;;;;;;14.85;61.38;97791.34;5032743;28;20473;-85
2024/01/07 10:32:23;;;;;;;;;;;;;;;14.85;61.92;97785.22;5033960;28;19993;-84
2024/01/07 10:34:50;;;;;;;;;;;;;;;14.88;61.93;97777.56;5032741;28;20370;-84
2024/01/07 10:37:16;;;;;;;;;;;;;;;14.90;61.70;97772.00;5033958;28;19913;-84
2024/01/07 10:39:41;;;;;;;;;;;;;;;14.85;61.23;97754.13;5033860;28;19913;-84
2024/01/07 10:42:07;;;;;;;;;;;;;;;14.88;61.90;97747.53;5032510;28;19913;-84
2024/01/07 10:44:33;;;;;;;;;;;;;;;14.90;62.18;97746.25;5033728;28;20302;-84
2024/01/07 10:46:58;;;;;;;;;;;;;;;14.89;60.89;97739.31;5031564;28;19914;-85
2024/01/07 10:49:25;;;;;;;;;;;;;;;14.89;61.66;97730.56;5033586;28;19920;-84
2024/01/07 10:51:56;;;;;;;;;;;;;;;14.91;62.15;97715.16;5033557;28;19921;-84
2024/01/07 10:54:23;;;;;;;;;;;;;;;14.90;61.72;97717.00;5032193;28;20357;-84
2024/01/07 10:56:50;;;;;;;;;;;;;;;14.91;61.90;97721.28;5033610;28;19936;-85
2024/01/07 10:59:15;;;;;;;;;;;;;;;14.92;62.16;97714.91;5032393;28;20000;-84
2024/01/07 11:01:40;;;;;;;;;;;;;;;14.96;61.96;97711.75;5032216;28;20008;-84
2024/01/07 11:04:08;;;;;;;;;;;;;;;15.01;61.89;97711.81;5032173;28;20371;-84
2024/01/07 11:06:40;;;;;;;;;;;;;;;15.01;61.78;97711.81;5031940;28;20009;-83
2024/01/07 11:09:18;;;;;;;;;;;;;;;14.98;61.12;97705.13;5032050;28;19913;-85
2024/01/07 11:11:43;;;;;;;;;;;;;;;15.04;61.23;97696.16;5032183;28;19996;-84
2024/01/07 11:14:27;;;;;;;;;;;;;;;15.06;61.30;97693.25;5033559;28;20377;-85
2024/01/07 11:16:53;;;;;;;;;;;;;;;15.11;61.49;97701.28;5033543;28;19913;-84
2024/01/07 11:19:20;;;;;;;;;;;;;;;15.12;61.53;97700.22;5032060;28;20451;-84
2024/01/07 11:21:45;;;;;;;;;;;;;;;15.15;61.17;97689.06;5031935;28;19913;-84
2024/01/07 11:24:31;;;;;;;;;;;;;;;15.15;60.55;97681.91;5032996;28;19921;-84
2024/01/07 11:27:01;;;;;;;;;;;;;;;15.20;60.48;97687.25;5031803;28;19921;-84
2024/01/07 11:29:26;;;;;;;;;;;;;;;15.24;61.08;97691.03;5033208;28;20394;-85
2024/01/07 11:31:51;;;;;;;;;;;;;;;15.27;59.98;97697.69;5031535;28;19963;-85
2024/01/07 11:34:35;;;;;;;;;;;;;;;15.32;58.89;97702.25;5032833;28;19913;-84
2024/01/07 11:37:01;;;;;;;;;;;;;;;15.37;60.51;97700.44;5033230;28;19913;-84
2024/01/07 11:39:26;;;;;;;;;;;;;;;15.39;58.35;97708.16;5032843;28;19920;-84
2024/01/07 11:41:52;;;;;;;;;;;;;;;15.38;59.28;97701.22;5031371;28;20321;-84
2024/01/07 11:44:17;;;;;;;;;;;;;;;15.38;59.48;97696.72;5032646;28;19914;-85
2024/01/07 11:46:42;;;;;;;;;;;;;;;15.40;59.96;97702.59;5032876;28;19939;-84
2024/01/07 11:49:08;;;;;;;;;;;;;;;15.38;59.42;97694.06;5032861;28;19913;-84
2024/01/07 11:51:35;;;;;;;;;;;;;;;15.36;58.99;97693.50;5031321;28;19913;-83
2024/01/07 11:54:00;;;;;;;;;;;;;;;15.32;57.53;97689.75;5032592;28;20416;-84
2024/01/07 11:56:26;;;;;;;;;;;;;;;15.31;58.04;97679.38;5032397;28;20024;-84
2024/01/07 11:58:51;;;;;;;;;;;;;;;15.28;57.15;97686.00;5031137;28;20353;-84
2024/01/07 12:01:17;;;;;;;;;;;;;;;15.24;57.97;97677.72;5032540;28;20003;-85
2024/01/07 12:03:46;;;;;;;;;;;;;;;15.25;58.40;97675.88;5032534;28;20379;-84
2024/01/07 12:06:14;;;;;;;;;;;;;;;15.21;58.22;97672.91;5030881;28;19939;-84
2024/01/07 12:08:41;;;;;;;;;;;;;;;15.18;58.71;97667.31;5030882;28;19913;-84
2024/01/07 12:11:06;;;;;;;;;;;;;;;15.15;58.84;97670.47;5032373;28;20002;-84
2024/01/07 12:13:32;;;;;;;;;;;;;;;15.11;58.80;97662.19;5030857;28;19964;-85
2024/01/07 12:15:57;;;;;;;;;;;;;;;15.10;58.69;97667.75;5030858;28;19935;-85
2024/01/07 12:18:24;;;;;;;;;;;;;;;15.04;58.33;97664.25;5030833;28;19917;-85
2024/01/07 12:20:57;;;;;;;;;;;;;;;15.03;58.69;97667.16;5031946;28;19920;-85
2024/01/07 12:23:22;;;;;;;;;;;;;;;14.99;59.30;97674.84;5031633;28;20341;-85
2024/01/07 12:25:47;;;;;;;;;;;;;;;14.99;59.19;97679.34;5031691;28;19917;-84
2024/01/07 12:28:16;;;;;;;;;;;;;;;14.98;59.22;97665.28;5013753;28;22468;-84
2024/01/07 12:30:42;;;;;;;;;;;;;;;14.96;58.92;97675.34;5030526;28;19917;-85
2024/01/07 12:33:07;;;;;;;;;;;;;;;14.94;58.91;97678.25;5031990;28;19916;-85
2024/01/07 12:35:34;;;;;;;;;;;;;;;14.96;59.63;97685.97;5031754;28;19920;-84
2024/01/07 12:37:59;;;;;;;;;;;;;;;14.95;60.08;97684.38;5030508;28;19996;-85
2024/01/07 12:40:26;;;;;;;;;;;;;;;14.93;59.03;97683.81;5030970;28;19963;-85